sensor_id;sensor_type;location;lat;lon;timestamp;pressure;altitude;pressure_sealevel;temperature;humidity
41703;BME280;861;48.808;9.006;2023-01-30T00:01:04;97743.09;;;0.76;68.36
41703;BME280;861;48.808;9.006;2023-01-30T00:03:32;97731.03;;;0.65;68.89
41703;BME280;861;48.808;9.006;2023-01-30T00:05:59;97718.63;;;0.69;68.40
41703;BME280;861;48.808;9.006;2023-01-30T00:08:25;97713.25;;;0.69;68.39
41703;BME280;861;48.808;9.006;2023-01-30T00:10:51;97702.47;;;0.61;69.12
41703;BME280;861;48.808;9.006;2023-01-30T00:13:17;97684.38;;;0.44;69.66
41703;BME280;861;48.808;9.006;2023-01-30T00:15:43;97680.50;;;0.28;70.26
41703;BME280;861;48.808;9.006;2023-01-30T00:18:10;97699.09;;;0.33;70.77
41703;BME280;861;48.808;9.006;2023-01-30T00:20:36;97696.97;;;0.22;70.96
41703;BME280;861;48.808;9.006;2023-01-30T00:23:03;97694.78;;;0.24;70.99
41703;BME280;861;48.808;9.006;2023-01-30T00:25:29;97695.06;;;0.22;70.72
41703;BME280;861;48.808;9.006;2023-01-30T00:28:00;97699.56;;;0.13;71.59
41703;BME280;861;48.808;9.006;2023-01-30T00:30:27;97684.94;;;0.33;71.03
41703;BME280;861;48.808;9.006;2023-01-30T00:32:56;97677.34;;;-0.10;72.19
41703;BME280;861;48.808;9.006;2023-01-30T00:35:23;97669.59;;;0.25;70.92
41703;BME280;861;48.808;9.006;2023-01-30T00:37:58;97665.16;;;0.20;70.81
41703;BME280;861;48.808;9.006;2023-01-30T00:40:27;97667.03;;;0.20;70.80
41703;BME280;861;48.808;9.006;2023-01-30T00:42:55;97673.41;;;0.10;71.14
41703;BME280;861;48.808;9.006;2023-01-30T00:45:45;97676.19;;;0.05;71.26
41703;BME280;861;48.808;9.006;2023-01-30T00:48:31;97689.44;;;0.24;70.65
41703;BME280;861;48.808;9.006;2023-01-30T00:50:58;97699.97;;;0.20;71.23
41703;BME280;861;48.808;9.006;2023-01-30T00:53:25;97702.66;;;0.07;71.81
41703;BME280;861;48.808;9.006;2023-01-30T00:55:53;97723.28;;;0.06;72.22
41703;BME280;861;48.808;9.006;2023-01-30T00:58:22;97731.59;;;0.18;72.13
41703;BME280;861;48.808;9.006;2023-01-30T01:00:51;97746.44;;;0.24;71.96
41703;BME280;861;48.808;9.006;2023-01-30T01:03:19;97763.00;;;0.26;71.83
41703;BME280;861;48.808;9.006;2023-01-30T01:05:45;97761.84;;;0.19;71.83
41703;BME280;861;48.808;9.006;2023-01-30T01:08:12;97761.44;;;0.12;71.87
41703;BME280;861;48.808;9.006;2023-01-30T01:10:39;97754.22;;;-0.02;73.05
41703;BME280;861;48.808;9.006;2023-01-30T01:13:06;97749.28;;;-0.22;73.08
41703;BME280;861;48.808;9.006;2023-01-30T01:15:33;97747.88;;;-0.06;73.06
41703;BME280;861;48.808;9.006;2023-01-30T01:18:00;97742.13;;;0.01;72.65
41703;BME280;861;48.808;9.006;2023-01-30T01:20:26;97750.03;;;0.20;72.05
41703;BME280;861;48.808;9.006;2023-01-30T01:22:56;97756.53;;;0.27;71.80
41703;BME280;861;48.808;9.006;2023-01-30T01:25:24;97745.06;;;0.27;71.88
41703;BME280;861;48.808;9.006;2023-01-30T01:27:52;97747.13;;;0.30;71.32
41703;BME280;861;48.808;9.006;2023-01-30T01:30:19;97763.19;;;0.30;71.93
41703;BME280;861;48.808;9.006;2023-01-30T01:32:46;97767.13;;;0.46;70.99
41703;BME280;861;48.808;9.006;2023-01-30T01:35:12;97758.91;;;0.42;71.48
41703;BME280;861;48.808;9.006;2023-01-30T01:37:38;97741.03;;;0.16;71.66
41703;BME280;861;48.808;9.006;2023-01-30T01:40:06;97748.56;;;0.14;72.20
41703;BME280;861;48.808;9.006;2023-01-30T01:42:52;97744.91;;;0.45;71.33
41703;BME280;861;48.808;9.006;2023-01-30T01:45:22;97740.41;;;0.54;71.05
41703;BME280;861;48.808;9.006;2023-01-30T01:48:19;97730.41;;;0.68;70.23
41703;BME280;861;48.808;9.006;2023-01-30T01:51:04;97744.00;;;0.72;70.55
41703;BME280;861;48.808;9.006;2023-01-30T01:53:50;97729.50;;;0.95;69.11
41703;BME280;861;48.808;9.006;2023-01-30T01:56:23;97720.53;;;0.55;69.67
41703;BME280;861;48.808;9.006;2023-01-30T01:59:00;97733.84;;;0.25;71.35
41703;BME280;861;48.808;9.006;2023-01-30T02:01:34;97751.50;;;0.61;70.67
41703;BME280;861;48.808;9.006;2023-01-30T02:04:06;97744.63;;;0.91;69.19
41703;BME280;861;48.808;9.006;2023-01-30T02:06:41;97740.19;;;0.86;69.64
41703;BME280;861;48.808;9.006;2023-01-30T02:09:09;97742.88;;;1.17;68.39
41703;BME280;861;48.808;9.006;2023-01-30T02:11:45;97735.03;;;0.98;68.26
41703;BME280;861;48.808;9.006;2023-01-30T02:14:19;97736.94;;;0.76;69.81
41703;BME280;861;48.808;9.006;2023-01-30T02:16:46;97725.72;;;0.96;68.90
41703;BME280;861;48.808;9.006;2023-01-30T02:19:40;97710.66;;;1.08;68.34
41703;BME280;861;48.808;9.006;2023-01-30T02:27:02;97707.88;;;0.91;68.53
41703;BME280;861;48.808;9.006;2023-01-30T02:30:10;97701.53;;;0.87;68.41
41703;BME280;861;48.808;9.006;2023-01-30T02:36:48;97737.22;;;0.74;67.91
41703;BME280;861;48.808;9.006;2023-01-30T02:39:58;97703.72;;;0.85;67.71
41703;BME280;861;48.808;9.006;2023-01-30T02:46:04;97692.19;;;-0.04;71.50
41703;BME280;861;48.808;9.006;2023-01-30T02:48:59;97688.22;;;-0.06;71.88
41703;BME280;861;48.808;9.006;2023-01-30T02:51:38;97685.91;;;-0.48;72.59
41703;BME280;861;48.808;9.006;2023-01-30T02:54:11;97683.03;;;-0.38;73.06
41703;BME280;861;48.808;9.006;2023-01-30T02:56:50;97682.63;;;-0.45;72.94
41703;BME280;861;48.808;9.006;2023-01-30T02:59:31;97682.75;;;-0.64;74.11
41703;BME280;861;48.808;9.006;2023-01-30T03:06:14;97649.50;;;-1.95;79.09
41703;BME280;861;48.808;9.006;2023-01-30T03:10:01;97640.22;;;-2.16;80.93
41703;BME280;861;48.808;9.006;2023-01-30T03:12:58;97630.34;;;-2.34;82.00
41703;BME280;861;48.808;9.006;2023-01-30T03:15:56;97611.53;;;-1.73;80.82
41703;BME280;861;48.808;9.006;2023-01-30T03:18:29;97591.72;;;-1.40;79.15
41703;BME280;861;48.808;9.006;2023-01-30T03:21:03;97585.63;;;-1.40;79.45
41703;BME280;861;48.808;9.006;2023-01-30T03:23:33;97572.13;;;-1.63;80.50
41703;BME280;861;48.808;9.006;2023-01-30T03:26:05;97546.00;;;-1.79;81.56
41703;BME280;861;48.808;9.006;2023-01-30T03:28:36;97543.97;;;-1.55;81.23
41703;BME280;861;48.808;9.006;2023-01-30T03:31:03;97518.84;;;-1.40;80.87
41703;BME280;861;48.808;9.006;2023-01-30T03:33:29;97519.56;;;-1.21;79.85
41703;BME280;861;48.808;9.006;2023-01-30T03:35:55;97525.28;;;-1.28;80.78
41703;BME280;861;48.808;9.006;2023-01-30T03:38:22;97527.75;;;-1.18;80.51
41703;BME280;861;48.808;9.006;2023-01-30T03:40:48;97538.91;;;-1.02;80.26
41703;BME280;861;48.808;9.006;2023-01-30T03:43:14;97558.00;;;-0.95;79.22
41703;BME280;861;48.808;9.006;2023-01-30T03:45:41;97572.41;;;-0.69;79.81
41703;BME280;861;48.808;9.006;2023-01-30T03:48:07;97576.72;;;-0.95;79.81
41703;BME280;861;48.808;9.006;2023-01-30T03:50:33;97570.09;;;-0.35;77.96
41703;BME280;861;48.808;9.006;2023-01-30T03:53:00;97580.28;;;-0.37;77.78
41703;BME280;861;48.808;9.006;2023-01-30T03:55:26;97575.63;;;-0.32;77.84
41703;BME280;861;48.808;9.006;2023-01-30T03:57:57;97574.19;;;-0.51;78.85
41703;BME280;861;48.808;9.006;2023-01-30T04:00:23;97578.25;;;-0.67;78.72
41703;BME280;861;48.808;9.006;2023-01-30T04:02:50;97575.09;;;-0.69;77.81
41703;BME280;861;48.808;9.006;2023-01-30T04:05:17;97590.84;;;-0.68;78.67
41703;BME280;861;48.808;9.006;2023-01-30T04:07:43;97581.44;;;-0.79;78.68
41703;BME280;861;48.808;9.006;2023-01-30T04:10:10;97583.50;;;-0.62;78.79
41703;BME280;861;48.808;9.006;2023-01-30T04:12:36;97580.50;;;-0.47;77.69
41703;BME280;861;48.808;9.006;2023-01-30T04:15:03;97566.78;;;-0.68;78.43
41703;BME280;861;48.808;9.006;2023-01-30T04:17:29;97566.75;;;-0.54;78.80
41703;BME280;861;48.808;9.006;2023-01-30T04:19:55;97562.81;;;-0.21;76.82
41703;BME280;861;48.808;9.006;2023-01-30T04:22:21;97579.81;;;-0.53;77.72
41703;BME280;861;48.808;9.006;2023-01-30T04:24:47;97582.19;;;-0.51;78.61
41703;BME280;861;48.808;9.006;2023-01-30T04:27:13;97568.91;;;-0.43;78.20
41703;BME280;861;48.808;9.006;2023-01-30T04:29:40;97561.06;;;-0.39;78.09
41703;BME280;861;48.808;9.006;2023-01-30T04:32:07;97552.41;;;-0.58;79.30
41703;BME280;861;48.808;9.006;2023-01-30T04:34:33;97558.69;;;-0.41;78.14
41703;BME280;861;48.808;9.006;2023-01-30T04:36:59;97566.38;;;-0.26;78.35
41703;BME280;861;48.808;9.006;2023-01-30T04:39:26;97565.38;;;-0.30;78.16
41703;BME280;861;48.808;9.006;2023-01-30T04:41:52;97566.09;;;-0.38;77.93
41703;BME280;861;48.808;9.006;2023-01-30T04:44:18;97564.53;;;-0.39;78.39
41703;BME280;861;48.808;9.006;2023-01-30T04:46:44;97563.72;;;-0.26;78.19
41703;BME280;861;48.808;9.006;2023-01-30T04:49:11;97569.25;;;0.00;77.07
41703;BME280;861;48.808;9.006;2023-01-30T04:51:37;97556.00;;;-0.27;77.36
41703;BME280;861;48.808;9.006;2023-01-30T04:54:04;97564.06;;;-0.19;77.42
41703;BME280;861;48.808;9.006;2023-01-30T04:56:31;97557.16;;;-0.20;77.56
41703;BME280;861;48.808;9.006;2023-01-30T04:58:57;97555.19;;;-0.06;77.53
41703;BME280;861;48.808;9.006;2023-01-30T05:01:36;97558.81;;;-0.24;77.38
41703;BME280;861;48.808;9.006;2023-01-30T05:04:05;97550.88;;;-0.15;78.03
41703;BME280;861;48.808;9.006;2023-01-30T05:06:34;97548.50;;;0.06;76.10
41703;BME280;861;48.808;9.006;2023-01-30T05:09:03;97545.53;;;-0.15;76.73
41703;BME280;861;48.808;9.006;2023-01-30T05:11:31;97547.09;;;-0.14;77.86
41703;BME280;861;48.808;9.006;2023-01-30T05:13:58;97539.97;;;-0.19;77.45
41703;BME280;861;48.808;9.006;2023-01-30T05:16:26;97534.16;;;-0.21;77.44
41703;BME280;861;48.808;9.006;2023-01-30T05:18:53;97531.19;;;-0.19;76.94
41703;BME280;861;48.808;9.006;2023-01-30T05:21:26;97526.53;;;0.17;75.73
41703;BME280;861;48.808;9.006;2023-01-30T05:23:55;97530.59;;;0.15;75.94
41703;BME280;861;48.808;9.006;2023-01-30T05:26:23;97518.66;;;-0.10;77.02
41703;BME280;861;48.808;9.006;2023-01-30T05:28:56;97525.53;;;0.35;74.84
41703;BME280;861;48.808;9.006;2023-01-30T05:31:24;97529.22;;;0.17;75.15
41703;BME280;861;48.808;9.006;2023-01-30T05:33:51;97527.53;;;-0.01;75.63
41703;BME280;861;48.808;9.006;2023-01-30T05:36:22;97515.66;;;-0.09;76.55
41703;BME280;861;48.808;9.006;2023-01-30T05:38:48;97515.31;;;0.37;75.22
41703;BME280;861;48.808;9.006;2023-01-30T05:41:16;97518.63;;;0.43;75.65
41703;BME280;861;48.808;9.006;2023-01-30T05:43:43;97504.84;;;-0.04;76.90
41703;BME280;861;48.808;9.006;2023-01-30T05:46:14;97514.53;;;0.15;76.47
41703;BME280;861;48.808;9.006;2023-01-30T05:48:40;97517.72;;;0.17;77.03
41703;BME280;861;48.808;9.006;2023-01-30T05:53:44;97514.81;;;0.05;76.78
41703;BME280;861;48.808;9.006;2023-01-30T05:56:10;97525.09;;;0.42;76.03
41703;BME280;861;48.808;9.006;2023-01-30T05:58:37;97522.91;;;0.44;75.73
41703;BME280;861;48.808;9.006;2023-01-30T06:01:10;97515.34;;;0.46;75.36
41703;BME280;861;48.808;9.006;2023-01-30T06:03:37;97520.88;;;0.49;74.34
41703;BME280;861;48.808;9.006;2023-01-30T06:06:05;97521.75;;;0.36;75.72
41703;BME280;861;48.808;9.006;2023-01-30T06:08:32;97511.66;;;0.33;74.78
41703;BME280;861;48.808;9.006;2023-01-30T06:11:05;97525.25;;;0.15;76.08
41703;BME280;861;48.808;9.006;2023-01-30T06:13:35;97520.91;;;0.58;74.70
41703;BME280;861;48.808;9.006;2023-01-30T06:16:03;97513.50;;;0.55;74.58
41703;BME280;861;48.808;9.006;2023-01-30T06:18:30;97504.56;;;0.07;76.12
41703;BME280;861;48.808;9.006;2023-01-30T06:20:57;97494.34;;;0.09;77.06
41703;BME280;861;48.808;9.006;2023-01-30T06:23:23;97500.91;;;0.25;75.96
41703;BME280;861;48.808;9.006;2023-01-30T06:25:52;97503.78;;;0.37;75.48
41703;BME280;861;48.808;9.006;2023-01-30T06:28:22;97503.66;;;0.42;75.49
41703;BME280;861;48.808;9.006;2023-01-30T06:30:51;97504.78;;;0.41;75.43
41703;BME280;861;48.808;9.006;2023-01-30T06:33:19;97502.78;;;0.24;76.00
41703;BME280;861;48.808;9.006;2023-01-30T06:35:50;97490.56;;;0.10;76.46
41703;BME280;861;48.808;9.006;2023-01-30T06:38:19;97495.38;;;0.60;75.11
41703;BME280;861;48.808;9.006;2023-01-30T06:40:48;97496.00;;;0.49;75.26
41703;BME280;861;48.808;9.006;2023-01-30T06:43:16;97500.19;;;0.41;75.42
41703;BME280;861;48.808;9.006;2023-01-30T06:45:43;97495.91;;;0.71;74.75
41703;BME280;861;48.808;9.006;2023-01-30T06:48:10;97495.78;;;0.84;74.79
41703;BME280;861;48.808;9.006;2023-01-30T06:50:36;97484.53;;;0.65;75.57
41703;BME280;861;48.808;9.006;2023-01-30T06:53:06;97476.25;;;0.36;76.31
41703;BME280;861;48.808;9.006;2023-01-30T06:55:34;97482.28;;;0.50;75.70
41703;BME280;861;48.808;9.006;2023-01-30T06:58:09;97484.84;;;0.64;75.13
41703;BME280;861;48.808;9.006;2023-01-30T07:00:41;97486.84;;;0.50;75.66
41703;BME280;861;48.808;9.006;2023-01-30T07:03:15;97492.28;;;0.75;75.99
41703;BME280;861;48.808;9.006;2023-01-30T07:05:45;97487.28;;;0.43;76.68
41703;BME280;861;48.808;9.006;2023-01-30T07:08:15;97490.47;;;0.54;75.69
41703;BME280;861;48.808;9.006;2023-01-30T07:10:43;97498.97;;;0.47;76.95
41703;BME280;861;48.808;9.006;2023-01-30T07:13:10;97503.78;;;0.67;76.04
41703;BME280;861;48.808;9.006;2023-01-30T07:15:37;97505.38;;;0.77;75.77
41703;BME280;861;48.808;9.006;2023-01-30T07:18:04;97509.75;;;0.64;76.18
41703;BME280;861;48.808;9.006;2023-01-30T07:20:30;97506.53;;;0.54;76.89
41703;BME280;861;48.808;9.006;2023-01-30T07:22:58;97516.56;;;0.70;76.51
41703;BME280;861;48.808;9.006;2023-01-30T07:25:27;97514.06;;;0.82;75.96
41703;BME280;861;48.808;9.006;2023-01-30T07:28:01;97523.09;;;0.56;76.93
41703;BME280;861;48.808;9.006;2023-01-30T07:30:32;97530.44;;;0.81;77.09
41703;BME280;861;48.808;9.006;2023-01-30T07:33:04;97530.44;;;0.81;75.99
41703;BME280;861;48.808;9.006;2023-01-30T07:35:36;97519.59;;;0.86;76.06
41703;BME280;861;48.808;9.006;2023-01-30T07:38:04;97524.06;;;1.07;75.73
41703;BME280;861;48.808;9.006;2023-01-30T07:40:31;97523.47;;;1.19;75.22
41703;BME280;861;48.808;9.006;2023-01-30T07:45:43;97532.41;;;1.06;75.85
41703;BME280;861;48.808;9.006;2023-01-30T07:48:16;97544.06;;;1.01;75.96
41703;BME280;861;48.808;9.006;2023-01-30T07:50:45;97556.19;;;0.90;76.17
41703;BME280;861;48.808;9.006;2023-01-30T07:53:16;97544.91;;;1.19;75.14
41703;BME280;861;48.808;9.006;2023-01-30T07:55:44;97540.22;;;1.33;75.14
41703;BME280;861;48.808;9.006;2023-01-30T07:58:15;97540.09;;;1.64;73.32
41703;BME280;861;48.808;9.006;2023-01-30T08:00:42;97530.59;;;1.66;73.89
41703;BME280;861;48.808;9.006;2023-01-30T08:03:15;97519.34;;;1.21;75.80
41703;BME280;861;48.808;9.006;2023-01-30T08:05:44;97513.47;;;0.94;76.88
41703;BME280;861;48.808;9.006;2023-01-30T08:08:11;97516.69;;;1.30;75.58
41703;BME280;861;48.808;9.006;2023-01-30T08:10:37;97524.44;;;1.48;76.33
41703;BME280;861;48.808;9.006;2023-01-30T08:13:03;97532.19;;;1.41;76.61
41703;BME280;861;48.808;9.006;2023-01-30T08:15:30;97557.53;;;1.18;77.60
41703;BME280;861;48.808;9.006;2023-01-30T08:17:59;97567.34;;;1.23;77.27
41703;BME280;861;48.808;9.006;2023-01-30T08:20:27;97556.94;;;1.38;77.12
41703;BME280;861;48.808;9.006;2023-01-30T08:22:54;97528.19;;;1.22;77.77
41703;BME280;861;48.808;9.006;2023-01-30T08:25:22;97518.91;;;1.28;77.52
41703;BME280;861;48.808;9.006;2023-01-30T08:27:48;97530.34;;;1.03;78.99
41703;BME280;861;48.808;9.006;2023-01-30T08:30:17;97506.28;;;1.28;78.39
41703;BME280;861;48.808;9.006;2023-01-30T08:32:44;97517.47;;;1.39;78.50
41703;BME280;861;48.808;9.006;2023-01-30T08:35:11;97495.72;;;1.75;76.99
41703;BME280;861;48.808;9.006;2023-01-30T08:37:42;97497.59;;;1.66;77.92
41703;BME280;861;48.808;9.006;2023-01-30T08:40:10;97489.91;;;1.55;78.01
41703;BME280;861;48.808;9.006;2023-01-30T08:42:37;97496.03;;;1.56;78.27
41703;BME280;861;48.808;9.006;2023-01-30T08:45:04;97508.03;;;1.58;78.82
41703;BME280;861;48.808;9.006;2023-01-30T08:47:30;97494.91;;;1.66;78.59
41703;BME280;861;48.808;9.006;2023-01-30T08:49:57;97489.41;;;1.53;78.54
41703;BME280;861;48.808;9.006;2023-01-30T08:52:24;97482.63;;;1.65;79.43
41703;BME280;861;48.808;9.006;2023-01-30T08:54:50;97488.13;;;1.77;78.42
41703;BME280;861;48.808;9.006;2023-01-30T08:57:17;97484.03;;;1.79;79.07
41703;BME280;861;48.808;9.006;2023-01-30T08:59:43;97472.78;;;1.94;78.50
41703;BME280;861;48.808;9.006;2023-01-30T09:02:12;97465.41;;;1.83;79.59
41703;BME280;861;48.808;9.006;2023-01-30T09:04:39;97447.25;;;1.80;78.93
41703;BME280;861;48.808;9.006;2023-01-30T09:07:05;97438.56;;;2.29;78.11
41703;BME280;861;48.808;9.006;2023-01-30T09:09:31;97419.75;;;2.37;77.20
41703;BME280;861;48.808;9.006;2023-01-30T09:11:58;97442.03;;;2.38;78.17
41703;BME280;861;48.808;9.006;2023-01-30T09:14:24;97427.41;;;2.10;78.70
41703;BME280;861;48.808;9.006;2023-01-30T09:16:51;97427.13;;;2.03;78.58
41703;BME280;861;48.808;9.006;2023-01-30T09:19:26;97422.94;;;2.22;78.06
41703;BME280;861;48.808;9.006;2023-01-30T09:21:55;97436.69;;;2.29;77.90
41703;BME280;861;48.808;9.006;2023-01-30T09:24:23;97440.88;;;2.01;78.39
41703;BME280;861;48.808;9.006;2023-01-30T09:26:56;97436.97;;;2.36;78.57
41703;BME280;861;48.808;9.006;2023-01-30T09:29:25;97450.00;;;2.17;77.69
41703;BME280;861;48.808;9.006;2023-01-30T09:31:54;97429.50;;;1.96;79.12
41703;BME280;861;48.808;9.006;2023-01-30T09:34:26;97450.22;;;1.95;79.43
41703;BME280;861;48.808;9.006;2023-01-30T09:36:59;97450.94;;;2.21;77.67
41703;BME280;861;48.808;9.006;2023-01-30T09:39:28;97446.81;;;2.24;78.04
41703;BME280;861;48.808;9.006;2023-01-30T09:42:24;97446.63;;;2.29;77.74
41703;BME280;861;48.808;9.006;2023-01-30T09:48:17;97432.44;;;2.20;77.94
41703;BME280;861;48.808;9.006;2023-01-30T09:51:38;97439.94;;;2.43;77.19
41703;BME280;861;48.808;9.006;2023-01-30T09:54:28;97427.31;;;2.35;77.72
41703;BME280;861;48.808;9.006;2023-01-30T09:57:24;97413.63;;;2.57;77.41
41703;BME280;861;48.808;9.006;2023-01-30T10:03:18;97399.81;;;2.38;78.75
41703;BME280;861;48.808;9.006;2023-01-30T10:06:00;97395.69;;;2.70;78.75
41703;BME280;861;48.808;9.006;2023-01-30T10:12:45;97390.72;;;3.22;77.54
41703;BME280;861;48.808;9.006;2023-01-30T10:15:42;97389.44;;;3.07;78.30
41703;BME280;861;48.808;9.006;2023-01-30T10:18:54;97401.31;;;3.27;78.15
41703;BME280;861;48.808;9.006;2023-01-30T10:21:45;97396.84;;;3.10;78.25
41703;BME280;861;48.808;9.006;2023-01-30T10:24:54;97408.72;;;3.09;79.65
41703;BME280;861;48.808;9.006;2023-01-30T10:28:55;97399.88;;;3.29;78.92
41703;BME280;861;48.808;9.006;2023-01-30T10:31:11;97388.25;;;3.37;79.19
41703;BME280;861;48.808;9.006;2023-01-30T10:34:04;97382.06;;;3.37;79.07
41703;BME280;861;48.808;9.006;2023-01-30T10:37:09;97379.16;;;3.62;79.20
41703;BME280;861;48.808;9.006;2023-01-30T10:40:07;97382.59;;;3.63;79.89
41703;BME280;861;48.808;9.006;2023-01-30T10:43:31;97378.59;;;3.36;80.94
41703;BME280;861;48.808;9.006;2023-01-30T10:49:49;97378.56;;;3.57;80.75
41703;BME280;861;48.808;9.006;2023-01-30T10:55:51;97374.59;;;3.87;79.65
41703;BME280;861;48.808;9.006;2023-01-30T10:59:03;97380.13;;;3.90;80.43
41703;BME280;861;48.808;9.006;2023-01-30T11:01:57;97368.41;;;3.86;81.56
41703;BME280;861;48.808;9.006;2023-01-30T11:04:55;97384.91;;;3.85;81.36
41703;BME280;861;48.808;9.006;2023-01-30T11:07:32;97367.88;;;3.81;81.68
41703;BME280;861;48.808;9.006;2023-01-30T11:10:00;97364.38;;;3.80;81.55
41703;BME280;861;48.808;9.006;2023-01-30T11:12:26;97377.88;;;3.60;83.20
41703;BME280;861;48.808;9.006;2023-01-30T11:15:01;97388.09;;;3.99;81.02
41703;BME280;861;48.808;9.006;2023-01-30T11:17:49;97378.63;;;3.81;82.65
41703;BME280;861;48.808;9.006;2023-01-30T11:20:28;97374.38;;;3.80;82.22
41703;BME280;861;48.808;9.006;2023-01-30T11:25:56;97363.00;;;3.74;83.48
41703;BME280;861;48.808;9.006;2023-01-30T11:28:38;97357.50;;;3.71;83.13
41703;BME280;861;48.808;9.006;2023-01-30T11:31:20;97368.09;;;3.88;82.61
41703;BME280;861;48.808;9.006;2023-01-30T11:34:14;97357.72;;;3.66;84.18
41703;BME280;861;48.808;9.006;2023-01-30T11:36:43;97371.09;;;3.74;83.89
41703;BME280;861;48.808;9.006;2023-01-30T11:41:56;97371.41;;;3.61;85.72
41703;BME280;861;48.808;9.006;2023-01-30T11:44:35;97372.06;;;3.58;85.05
41703;BME280;861;48.808;9.006;2023-01-30T11:47:24;97376.00;;;3.60;86.26
41703;BME280;861;48.808;9.006;2023-01-30T11:49:57;97372.59;;;3.51;87.21
41703;BME280;861;48.808;9.006;2023-01-30T11:52:36;97396.19;;;3.34;87.25
41703;BME280;861;48.808;9.006;2023-01-30T11:55:14;97385.81;;;3.24;87.06
41703;BME280;861;48.808;9.006;2023-01-30T11:57:55;97368.16;;;3.35;87.57
41703;BME280;861;48.808;9.006;2023-01-30T12:00:42;97377.59;;;3.20;88.10
41703;BME280;861;48.808;9.006;2023-01-30T12:03:21;97366.09;;;3.52;87.29
41703;BME280;861;48.808;9.006;2023-01-30T12:05:50;97374.53;;;3.30;87.04
41703;BME280;861;48.808;9.006;2023-01-30T12:11:27;97375.56;;;3.38;88.06
41703;BME280;861;48.808;9.006;2023-01-30T12:17:26;97357.50;;;3.71;85.72
41703;BME280;861;48.808;9.006;2023-01-30T12:20:22;97359.19;;;3.75;85.87
41703;BME280;861;48.808;9.006;2023-01-30T12:26:01;97352.50;;;3.49;87.41
41703;BME280;861;48.808;9.006;2023-01-30T12:28:47;97345.16;;;3.58;87.11
41703;BME280;861;48.808;9.006;2023-01-30T12:31:41;97353.44;;;3.65;86.73
41703;BME280;861;48.808;9.006;2023-01-30T12:34:12;97366.38;;;3.71;86.55
41703;BME280;861;48.808;9.006;2023-01-30T12:37:23;97362.41;;;3.57;87.80
41703;BME280;861;48.808;9.006;2023-01-30T12:44:08;97363.59;;;3.47;88.75
41703;BME280;861;48.808;9.006;2023-01-30T12:47:20;97371.00;;;3.50;88.82
41703;BME280;861;48.808;9.006;2023-01-30T12:50:28;97379.75;;;3.47;88.28
41703;BME280;861;48.808;9.006;2023-01-30T12:57:20;97387.22;;;3.62;88.27
41703;BME280;861;48.808;9.006;2023-01-30T13:03:57;97396.91;;;4.44;85.55
41703;BME280;861;48.808;9.006;2023-01-30T13:10:17;97407.47;;;4.61;85.20
41703;BME280;861;48.808;9.006;2023-01-30T13:13:24;97381.75;;;4.51;85.49
41703;BME280;861;48.808;9.006;2023-01-30T13:16:31;97383.97;;;4.49;85.29
41703;BME280;861;48.808;9.006;2023-01-30T13:19:25;97393.53;;;4.47;85.25
41703;BME280;861;48.808;9.006;2023-01-30T13:22:22;97384.44;;;4.39;86.07
41703;BME280;861;48.808;9.006;2023-01-30T13:25:44;97389.38;;;4.61;84.57
41703;BME280;861;48.808;9.006;2023-01-30T13:28:35;97406.69;;;4.60;83.34
41703;BME280;861;48.808;9.006;2023-01-30T13:31:15;97408.25;;;4.49;83.39
41703;BME280;861;48.808;9.006;2023-01-30T13:34:04;97417.81;;;4.59;82.84
41703;BME280;861;48.808;9.006;2023-01-30T13:36:54;97419.84;;;4.74;82.13
41703;BME280;861;48.808;9.006;2023-01-30T13:39:44;97433.75;;;4.76;82.44
41703;BME280;861;48.808;9.006;2023-01-30T13:42:51;97432.41;;;4.94;80.92
41703;BME280;861;48.808;9.006;2023-01-30T13:45:41;97429.50;;;4.75;81.43
41703;BME280;861;48.808;9.006;2023-01-30T13:51:38;97445.66;;;4.87;79.32
41703;BME280;861;48.808;9.006;2023-01-30T13:54:44;97461.16;;;4.90;79.65
41703;BME280;861;48.808;9.006;2023-01-30T13:57:50;97470.53;;;4.93;79.57
41703;BME280;861;48.808;9.006;2023-01-30T14:00:34;97475.47;;;4.79;80.12
41703;BME280;861;48.808;9.006;2023-01-30T14:08:32;97473.53;;;4.67;81.00
41703;BME280;861;48.808;9.006;2023-01-30T14:11:04;97486.81;;;4.72;80.95
41703;BME280;861;48.808;9.006;2023-01-30T14:14:22;97484.91;;;4.85;80.55
41703;BME280;861;48.808;9.006;2023-01-30T14:17:06;97482.41;;;4.55;81.03
41703;BME280;861;48.808;9.006;2023-01-30T14:22:53;97492.06;;;4.68;80.36
41703;BME280;861;48.808;9.006;2023-01-30T14:33:01;97489.38;;;4.56;80.33
41703;BME280;861;48.808;9.006;2023-01-30T14:35:31;97499.78;;;4.46;80.41
41703;BME280;861;48.808;9.006;2023-01-30T14:38:19;97511.31;;;4.22;81.44
41703;BME280;861;48.808;9.006;2023-01-30T14:41:22;97501.66;;;4.21;81.81
41703;BME280;861;48.808;9.006;2023-01-30T14:43:52;97507.84;;;4.22;82.19
41703;BME280;861;48.808;9.006;2023-01-30T14:51:47;97497.59;;;4.15;82.46
41703;BME280;861;48.808;9.006;2023-01-30T14:56:50;97499.00;;;4.01;82.08
41703;BME280;861;48.808;9.006;2023-01-30T14:59:55;97499.66;;;3.98;81.89
41703;BME280;861;48.808;9.006;2023-01-30T15:02:47;97535.00;;;3.96;81.75
41703;BME280;861;48.808;9.006;2023-01-30T15:05:37;97509.06;;;3.92;81.70
41703;BME280;861;48.808;9.006;2023-01-30T15:08:22;97513.59;;;4.00;81.59
41703;BME280;861;48.808;9.006;2023-01-30T15:11:26;97521.16;;;4.06;81.83
41703;BME280;861;48.808;9.006;2023-01-30T15:25:11;97546.06;;;4.36;80.78
41703;BME280;861;48.808;9.006;2023-01-30T15:28:32;97554.63;;;4.38;80.31
41703;BME280;861;48.808;9.006;2023-01-30T15:31:17;97530.69;;;4.36;80.53
41703;BME280;861;48.808;9.006;2023-01-30T15:33:51;97540.06;;;4.30;80.14
41703;BME280;861;48.808;9.006;2023-01-30T15:36:34;97545.13;;;4.32;79.66
41703;BME280;861;48.808;9.006;2023-01-30T15:39:17;97542.00;;;4.30;80.14
41703;BME280;861;48.808;9.006;2023-01-30T15:41:46;97549.97;;;4.26;80.49
41703;BME280;861;48.808;9.006;2023-01-30T15:44:56;97552.56;;;4.35;79.88
41703;BME280;861;48.808;9.006;2023-01-30T15:50:57;97570.22;;;4.12;81.02
41703;BME280;861;48.808;9.006;2023-01-30T15:53:35;97568.88;;;4.18;80.34
41703;BME280;861;48.808;9.006;2023-01-30T15:56:16;97556.72;;;4.32;80.34
41703;BME280;861;48.808;9.006;2023-01-30T15:58:47;97550.56;;;4.11;80.63
41703;BME280;861;48.808;9.006;2023-01-30T16:01:21;97564.56;;;4.25;80.24
41703;BME280;861;48.808;9.006;2023-01-30T16:03:50;97576.66;;;4.19;80.27
41703;BME280;861;48.808;9.006;2023-01-30T16:06:43;97574.19;;;4.14;80.51
41703;BME280;861;48.808;9.006;2023-01-30T16:09:22;97572.44;;;4.10;80.82